sensor_id;sensor_type;location;lat;lon;timestamp;P1;durP1;ratioP1;P2;durP2;ratioP2
34585;SDS011;20816;50.950;11.108;2023-08-01T00:00:11;0.95;;;0.70;;
34585;SDS011;20816;50.950;11.108;2023-08-01T00:02:38;2.90;;;1.08;;
34585;SDS011;20816;50.950;11.108;2023-08-01T00:05:06;1.25;;;0.82;;
34585;SDS011;20816;50.950;11.108;2023-08-01T00:07:32;1.17;;;0.63;;
34585;SDS011;20816;50.950;11.108;2023-08-01T00:10:03;1.17;;;0.93;;
34585;SDS011;20816;50.950;11.108;2023-08-01T00:12:30;1.35;;;0.50;;
34585;SDS011;20816;50.950;11.108;2023-08-01T00:14:57;0.60;;;0.60;;
34585;SDS011;20816;50.950;11.108;2023-08-01T00:17:23;0.70;;;0.47;;
34585;SDS011;20816;50.950;11.108;2023-08-01T00:19:50;0.68;;;0.50;;
34585;SDS011;20816;50.950;11.108;2023-08-01T00:22:17;0.93;;;0.63;;
34585;SDS011;20816;50.950;11.108;2023-08-01T00:24:44;1.58;;;0.77;;
34585;SDS011;20816;50.950;11.108;2023-08-01T00:27:10;0.68;;;0.68;;
34585;SDS011;20816;50.950;11.108;2023-08-01T00:29:37;2.30;;;1.08;;
34585;SDS011;20816;50.950;11.108;2023-08-01T00:32:04;1.15;;;0.80;;
34585;SDS011;20816;50.950;11.108;2023-08-01T00:34:31;0.80;;;0.60;;
34585;SDS011;20816;50.950;11.108;2023-08-01T00:36:58;1.40;;;1.08;;
34585;SDS011;20816;50.950;11.108;2023-08-01T00:39:24;1.88;;;0.82;;
34585;SDS011;20816;50.950;11.108;2023-08-01T00:41:51;1.50;;;0.47;;
34585;SDS011;20816;50.950;11.108;2023-08-01T00:44:18;0.75;;;0.50;;
34585;SDS011;20816;50.950;11.108;2023-08-01T00:46:45;1.42;;;0.65;;
34585;SDS011;20816;50.950;11.108;2023-08-01T00:49:12;19.70;;;1.10;;
34585;SDS011;20816;50.950;11.108;2023-08-01T00:51:40;1.10;;;1.00;;
34585;SDS011;20816;50.950;11.108;2023-08-01T00:54:08;0.70;;;0.70;;
34585;SDS011;20816;50.950;11.108;2023-08-01T00:56:36;1.92;;;0.88;;
34585;SDS011;20816;50.950;11.108;2023-08-01T00:59:04;1.48;;;0.57;;
34585;SDS011;20816;50.950;11.108;2023-08-01T01:01:31;0.63;;;0.45;;
34585;SDS011;20816;50.950;11.108;2023-08-01T01:03:58;1.00;;;0.90;;
34585;SDS011;20816;50.950;11.108;2023-08-01T01:09:00;0.95;;;0.43;;
34585;SDS011;20816;50.950;11.108;2023-08-01T01:11:26;1.27;;;0.70;;
34585;SDS011;20816;50.950;11.108;2023-08-01T01:13:54;1.05;;;0.43;;
34585;SDS011;20816;50.950;11.108;2023-08-01T01:16:20;1.50;;;0.68;;
34585;SDS011;20816;50.950;11.108;2023-08-01T01:18:47;0.93;;;0.70;;
34585;SDS011;20816;50.950;11.108;2023-08-01T01:21:14;3.85;;;0.93;;
34585;SDS011;20816;50.950;11.108;2023-08-01T01:23:41;1.45;;;0.50;;
34585;SDS011;20816;50.950;11.108;2023-08-01T01:26:10;2.28;;;1.33;;
34585;SDS011;20816;50.950;11.108;2023-08-01T01:28:37;1.10;;;0.70;;
34585;SDS011;20816;50.950;11.108;2023-08-01T01:31:05;1.00;;;0.65;;
34585;SDS011;20816;50.950;11.108;2023-08-01T01:33:32;0.98;;;0.70;;
34585;SDS011;20816;50.950;11.108;2023-08-01T01:36:00;1.92;;;1.10;;
34585;SDS011;20816;50.950;11.108;2023-08-01T01:38:27;1.40;;;1.05;;
34585;SDS011;20816;50.950;11.108;2023-08-01T01:40:54;1.70;;;0.93;;
34585;SDS011;20816;50.950;11.108;2023-08-01T01:43:21;1.70;;;0.70;;
34585;SDS011;20816;50.950;11.108;2023-08-01T01:45:48;2.72;;;0.77;;
34585;SDS011;20816;50.950;11.108;2023-08-01T01:48:14;1.38;;;0.80;;
34585;SDS011;20816;50.950;11.108;2023-08-01T01:50:41;2.22;;;1.23;;
34585;SDS011;20816;50.950;11.108;2023-08-01T01:53:08;1.17;;;0.77;;
34585;SDS011;20816;50.950;11.108;2023-08-01T01:55:34;1.13;;;0.70;;
34585;SDS011;20816;50.950;11.108;2023-08-01T01:58:01;1.67;;;0.73;;
34585;SDS011;20816;50.950;11.108;2023-08-01T02:00:28;0.90;;;0.55;;
34585;SDS011;20816;50.950;11.108;2023-08-01T02:02:54;0.90;;;0.60;;
34585;SDS011;20816;50.950;11.108;2023-08-01T02:05:21;3.00;;;0.85;;
34585;SDS011;20816;50.950;11.108;2023-08-01T02:07:48;1.05;;;0.68;;
34585;SDS011;20816;50.950;11.108;2023-08-01T02:10:14;1.13;;;0.52;;
34585;SDS011;20816;50.950;11.108;2023-08-01T02:12:41;1.20;;;0.65;;
34585;SDS011;20816;50.950;11.108;2023-08-01T02:15:08;2.85;;;0.68;;
34585;SDS011;20816;50.950;11.108;2023-08-01T02:17:35;3.70;;;0.60;;
34585;SDS011;20816;50.950;11.108;2023-08-01T02:20:01;0.22;;;0.22;;
34585;SDS011;20816;50.950;11.108;2023-08-01T02:22:28;0.80;;;0.60;;
34585;SDS011;20816;50.950;11.108;2023-08-01T02:24:55;1.02;;;0.90;;
34585;SDS011;20816;50.950;11.108;2023-08-01T02:27:22;0.50;;;0.30;;
34585;SDS011;20816;50.950;11.108;2023-08-01T02:29:48;1.13;;;0.50;;
34585;SDS011;20816;50.950;11.108;2023-08-01T02:32:17;0.50;;;0.30;;
34585;SDS011;20816;50.950;11.108;2023-08-01T02:34:44;0.43;;;0.40;;
34585;SDS011;20816;50.950;11.108;2023-08-01T02:37:11;0.68;;;0.50;;
34585;SDS011;20816;50.950;11.108;2023-08-01T02:39:37;1.73;;;0.50;;
34585;SDS011;20816;50.950;11.108;2023-08-01T02:42:04;0.20;;;0.20;;
34585;SDS011;20816;50.950;11.108;2023-08-01T02:44:31;0.40;;;0.20;;
34585;SDS011;20816;50.950;11.108;2023-08-01T02:46:58;0.10;;;0.10;;
34585;SDS011;20816;50.950;11.108;2023-08-01T02:49:24;0.35;;;0.30;;
34585;SDS011;20816;50.950;11.108;2023-08-01T02:51:51;0.10;;;0.10;;
34585;SDS011;20816;50.950;11.108;2023-08-01T02:54:18;0.20;;;0.20;;
34585;SDS011;20816;50.950;11.108;2023-08-01T02:56:45;0.20;;;0.20;;
34585;SDS011;20816;50.950;11.108;2023-08-01T02:59:11;1.45;;;0.25;;
34585;SDS011;20816;50.950;11.108;2023-08-01T03:01:38;1.60;;;0.20;;
34585;SDS011;20816;50.950;11.108;2023-08-01T03:04:06;0.30;;;0.15;;
34585;SDS011;20816;50.950;11.108;2023-08-01T03:06:33;0.55;;;0.20;;
34585;SDS011;20816;50.950;11.108;2023-08-01T03:09:00;0.38;;;0.20;;
34585;SDS011;20816;50.950;11.108;2023-08-01T03:11:27;0.20;;;0.10;;
34585;SDS011;20816;50.950;11.108;2023-08-01T03:13:54;0.35;;;0.30;;
34585;SDS011;20816;50.950;11.108;2023-08-01T03:16:21;0.20;;;0.20;;
34585;SDS011;20816;50.950;11.108;2023-08-01T03:18:48;0.47;;;0.20;;
34585;SDS011;20816;50.950;11.108;2023-08-01T03:21:14;3.22;;;0.40;;
34585;SDS011;20816;50.950;11.108;2023-08-01T03:23:41;0.43;;;0.15;;
34585;SDS011;20816;50.950;11.108;2023-08-01T03:26:08;0.45;;;0.30;;
34585;SDS011;20816;50.950;11.108;2023-08-01T03:28:35;0.20;;;0.20;;
34585;SDS011;20816;50.950;11.108;2023-08-01T03:31:01;0.20;;;0.20;;
34585;SDS011;20816;50.950;11.108;2023-08-01T03:33:28;0.38;;;0.30;;
34585;SDS011;20816;50.950;11.108;2023-08-01T03:35:55;0.32;;;0.30;;
34585;SDS011;20816;50.950;11.108;2023-08-01T03:38:22;0.73;;;0.43;;
34585;SDS011;20816;50.950;11.108;2023-08-01T03:40:49;0.25;;;0.08;;
34585;SDS011;20816;50.950;11.108;2023-08-01T03:43:15;0.22;;;0.20;;
34585;SDS011;20816;50.950;11.108;2023-08-01T03:45:42;0.20;;;0.10;;
34585;SDS011;20816;50.950;11.108;2023-08-01T03:48:09;0.98;;;0.40;;
34585;SDS011;20816;50.950;11.108;2023-08-01T03:50:36;0.47;;;0.30;;
34585;SDS011;20816;50.950;11.108;2023-08-01T03:53:03;0.28;;;0.20;;
34585;SDS011;20816;50.950;11.108;2023-08-01T03:55:29;0.22;;;0.22;;
34585;SDS011;20816;50.950;11.108;2023-08-01T03:57:56;2.95;;;0.63;;
34585;SDS011;20816;50.950;11.108;2023-08-01T04:00:23;0.20;;;0.20;;
34585;SDS011;20816;50.950;11.108;2023-08-01T04:02:50;0.30;;;0.10;;
34585;SDS011;20816;50.950;11.108;2023-08-01T04:05:16;1.52;;;0.60;;
34585;SDS011;20816;50.950;11.108;2023-08-01T04:07:43;0.30;;;0.30;;
34585;SDS011;20816;50.950;11.108;2023-08-01T04:10:10;0.75;;;0.43;;
34585;SDS011;20816;50.950;11.108;2023-08-01T04:12:36;0.43;;;0.20;;
34585;SDS011;20816;50.950;11.108;2023-08-01T04:15:03;0.40;;;0.30;;
34585;SDS011;20816;50.950;11.108;2023-08-01T04:17:30;0.20;;;0.10;;
34585;SDS011;20816;50.950;11.108;2023-08-01T04:19:57;0.10;;;0.10;;
34585;SDS011;20816;50.950;11.108;2023-08-01T04:22:24;2.30;;;0.47;;
34585;SDS011;20816;50.950;11.108;2023-08-01T04:24:50;1.45;;;0.32;;
34585;SDS011;20816;50.950;11.108;2023-08-01T04:27:17;0.30;;;0.25;;
34585;SDS011;20816;50.950;11.108;2023-08-01T04:29:44;0.55;;;0.30;;
34585;SDS011;20816;50.950;11.108;2023-08-01T04:32:10;0.45;;;0.25;;
34585;SDS011;20816;50.950;11.108;2023-08-01T04:34:43;0.38;;;0.28;;
34585;SDS011;20816;50.950;11.108;2023-08-01T04:37:10;0.10;;;0.10;;
34585;SDS011;20816;50.950;11.108;2023-08-01T04:39:37;0.20;;;0.10;;
34585;SDS011;20816;50.950;11.108;2023-08-01T04:42:04;0.13;;;0.10;;
34585;SDS011;20816;50.950;11.108;2023-08-01T04:44:31;0.03;;;0.03;;
34585;SDS011;20816;50.950;11.108;2023-08-01T04:46:58;0.15;;;0.15;;
34585;SDS011;20816;50.950;11.108;2023-08-01T04:49:25;0.10;;;0.10;;
34585;SDS011;20816;50.950;11.108;2023-08-01T04:51:52;0.10;;;0.10;;
34585;SDS011;20816;50.950;11.108;2023-08-01T04:54:18;0.03;;;0.03;;
34585;SDS011;20816;50.950;11.108;2023-08-01T04:56:45;1.15;;;0.10;;
34585;SDS011;20816;50.950;11.108;2023-08-01T04:59:12;1.85;;;0.10;;
34585;SDS011;20816;50.950;11.108;2023-08-01T05:01:38;0.20;;;0.10;;
34585;SDS011;20816;50.950;11.108;2023-08-01T05:04:05;0.10;;;0.10;;
34585;SDS011;20816;50.950;11.108;2023-08-01T05:06:32;0.00;;;0.00;;
34585;SDS011;20816;50.950;11.108;2023-08-01T05:08:58;0.40;;;0.10;;
34585;SDS011;20816;50.950;11.108;2023-08-01T05:11:26;0.30;;;0.30;;
34585;SDS011;20816;50.950;11.108;2023-08-01T05:13:53;0.20;;;0.20;;
34585;SDS011;20816;50.950;11.108;2023-08-01T05:16:20;4.78;;;0.30;;
34585;SDS011;20816;50.950;11.108;2023-08-01T05:18:47;0.20;;;0.10;;
34585;SDS011;20816;50.950;11.108;2023-08-01T05:21:13;0.00;;;0.00;;
34585;SDS011;20816;50.950;11.108;2023-08-01T05:23:40;0.13;;;0.13;;
34585;SDS011;20816;50.950;11.108;2023-08-01T05:26:07;0.10;;;0.10;;
34585;SDS011;20816;50.950;11.108;2023-08-01T05:28:33;0.20;;;0.20;;
34585;SDS011;20816;50.950;11.108;2023-08-01T05:31:00;0.10;;;0.10;;
34585;SDS011;20816;50.950;11.108;2023-08-01T05:33:27;0.20;;;0.20;;
34585;SDS011;20816;50.950;11.108;2023-08-01T05:35:53;0.10;;;0.10;;
34585;SDS011;20816;50.950;11.108;2023-08-01T05:38:20;0.10;;;0.10;;
34585;SDS011;20816;50.950;11.108;2023-08-01T05:40:47;0.52;;;0.20;;
34585;SDS011;20816;50.950;11.108;2023-08-01T05:43:14;0.90;;;0.20;;
34585;SDS011;20816;50.950;11.108;2023-08-01T05:45:40;2.92;;;0.32;;
34585;SDS011;20816;50.950;11.108;2023-08-01T05:48:07;0.30;;;0.20;;
34585;SDS011;20816;50.950;11.108;2023-08-01T05:50:34;0.25;;;0.25;;
34585;SDS011;20816;50.950;11.108;2023-08-01T05:53:01;0.10;;;0.10;;
34585;SDS011;20816;50.950;11.108;2023-08-01T05:55:27;0.20;;;0.10;;
34585;SDS011;20816;50.950;11.108;2023-08-01T05:57:54;3.10;;;0.17;;
34585;SDS011;20816;50.950;11.108;2023-08-01T06:00:21;0.35;;;0.22;;
34585;SDS011;20816;50.950;11.108;2023-08-01T06:02:48;0.10;;;0.10;;
34585;SDS011;20816;50.950;11.108;2023-08-01T06:05:15;0.17;;;0.10;;
34585;SDS011;20816;50.950;11.108;2023-08-01T06:07:42;0.20;;;0.15;;
34585;SDS011;20816;50.950;11.108;2023-08-01T06:10:08;0.28;;;0.28;;
34585;SDS011;20816;50.950;11.108;2023-08-01T06:12:35;0.10;;;0.10;;
34585;SDS011;20816;50.950;11.108;2023-08-01T06:15:03;0.20;;;0.20;;
34585;SDS011;20816;50.950;11.108;2023-08-01T06:17:30;0.13;;;0.10;;
34585;SDS011;20816;50.950;11.108;2023-08-01T06:19:57;0.38;;;0.22;;
34585;SDS011;20816;50.950;11.108;2023-08-01T06:22:24;2.20;;;0.20;;
34585;SDS011;20816;50.950;11.108;2023-08-01T06:24:50;0.10;;;0.10;;
34585;SDS011;20816;50.950;11.108;2023-08-01T06:27:17;0.30;;;0.13;;
34585;SDS011;20816;50.950;11.108;2023-08-01T06:29:44;0.10;;;0.10;;
34585;SDS011;20816;50.950;11.108;2023-08-01T06:32:11;0.98;;;0.20;;
34585;SDS011;20816;50.950;11.108;2023-08-01T06:34:38;1.33;;;0.10;;
34585;SDS011;20816;50.950;11.108;2023-08-01T06:37:04;0.38;;;0.20;;
34585;SDS011;20816;50.950;11.108;2023-08-01T06:39:31;0.13;;;0.10;;
34585;SDS011;20816;50.950;11.108;2023-08-01T06:41:58;0.57;;;0.32;;
34585;SDS011;20816;50.950;11.108;2023-08-01T06:44:25;1.75;;;0.17;;
34585;SDS011;20816;50.950;11.108;2023-08-01T06:46:52;0.57;;;0.22;;
34585;SDS011;20816;50.950;11.108;2023-08-01T06:49:18;0.40;;;0.13;;
34585;SDS011;20816;50.950;11.108;2023-08-01T06:51:45;2.28;;;0.68;;
34585;SDS011;20816;50.950;11.108;2023-08-01T06:54:12;0.20;;;0.10;;
34585;SDS011;20816;50.950;11.108;2023-08-01T06:56:39;0.50;;;0.25;;
34585;SDS011;20816;50.950;11.108;2023-08-01T06:59:06;0.10;;;0.10;;
34585;SDS011;20816;50.950;11.108;2023-08-01T07:01:33;0.22;;;0.10;;
34585;SDS011;20816;50.950;11.108;2023-08-01T07:04:01;0.25;;;0.10;;
34585;SDS011;20816;50.950;11.108;2023-08-01T07:06:28;0.30;;;0.30;;
34585;SDS011;20816;50.950;11.108;2023-08-01T07:08:54;0.00;;;0.00;;
34585;SDS011;20816;50.950;11.108;2023-08-01T07:11:24;1.75;;;0.15;;
34585;SDS011;20816;50.950;11.108;2023-08-01T07:13:50;0.13;;;0.13;;
34585;SDS011;20816;50.950;11.108;2023-08-01T07:16:17;0.10;;;0.10;;
34585;SDS011;20816;50.950;11.108;2023-08-01T07:18:44;0.32;;;0.32;;
34585;SDS011;20816;50.950;11.108;2023-08-01T07:21:10;0.22;;;0.20;;
34585;SDS011;20816;50.950;11.108;2023-08-01T07:23:37;0.43;;;0.30;;
34585;SDS011;20816;50.950;11.108;2023-08-01T07:26:04;0.22;;;0.20;;
34585;SDS011;20816;50.950;11.108;2023-08-01T07:28:31;0.13;;;0.10;;
34585;SDS011;20816;50.950;11.108;2023-08-01T07:31:05;0.63;;;0.20;;
34585;SDS011;20816;50.950;11.108;2023-08-01T07:33:33;1.15;;;0.20;;
34585;SDS011;20816;50.950;11.108;2023-08-01T07:36:01;0.52;;;0.20;;
34585;SDS011;20816;50.950;11.108;2023-08-01T07:38:28;0.77;;;0.20;;
34585;SDS011;20816;50.950;11.108;2023-08-01T07:40:55;2.88;;;0.28;;
34585;SDS011;20816;50.950;11.108;2023-08-01T07:43:22;0.22;;;0.17;;
34585;SDS011;20816;50.950;11.108;2023-08-01T07:45:49;0.20;;;0.20;;
34585;SDS011;20816;50.950;11.108;2023-08-01T07:48:21;0.82;;;0.40;;
34585;SDS011;20816;50.950;11.108;2023-08-01T07:50:47;0.38;;;0.35;;
34585;SDS011;20816;50.950;11.108;2023-08-01T07:53:14;0.50;;;0.30;;
34585;SDS011;20816;50.950;11.108;2023-08-01T07:55:41;1.63;;;0.30;;
34585;SDS011;20816;50.950;11.108;2023-08-01T07:58:07;0.55;;;0.30;;
34585;SDS011;20816;50.950;11.108;2023-08-01T08:00:34;0.38;;;0.20;;
34585;SDS011;20816;50.950;11.108;2023-08-01T08:03:01;0.43;;;0.20;;
34585;SDS011;20816;50.950;11.108;2023-08-01T08:05:28;0.40;;;0.20;;
34585;SDS011;20816;50.950;11.108;2023-08-01T08:07:55;0.30;;;0.20;;
34585;SDS011;20816;50.950;11.108;2023-08-01T08:10:22;3.15;;;0.30;;
34585;SDS011;20816;50.950;11.108;2023-08-01T08:12:49;0.52;;;0.25;;
34585;SDS011;20816;50.950;11.108;2023-08-01T08:15:16;0.30;;;0.20;;
34585;SDS011;20816;50.950;11.108;2023-08-01T08:17:43;0.20;;;0.20;;
34585;SDS011;20816;50.950;11.108;2023-08-01T08:20:10;0.35;;;0.20;;
34585;SDS011;20816;50.950;11.108;2023-08-01T08:22:37;1.52;;;0.35;;
34585;SDS011;20816;50.950;11.108;2023-08-01T08:25:04;0.25;;;0.20;;
34585;SDS011;20816;50.950;11.108;2023-08-01T08:27:30;0.77;;;0.25;;
34585;SDS011;20816;50.950;11.108;2023-08-01T08:29:58;0.35;;;0.20;;
34585;SDS011;20816;50.950;11.108;2023-08-01T08:32:24;1.13;;;0.40;;
34585;SDS011;20816;50.950;11.108;2023-08-01T08:34:51;0.17;;;0.17;;
34585;SDS011;20816;50.950;11.108;2023-08-01T08:37:18;0.45;;;0.15;;
34585;SDS011;20816;50.950;11.108;2023-08-01T08:39:44;0.90;;;0.20;;
34585;SDS011;20816;50.950;11.108;2023-08-01T08:42:11;0.10;;;0.10;;
34585;SDS011;20816;50.950;11.108;2023-08-01T08:44:42;0.50;;;0.50;;
34585;SDS011;20816;50.950;11.108;2023-08-01T08:47:10;0.65;;;0.25;;
34585;SDS011;20816;50.950;11.108;2023-08-01T08:49:39;0.10;;;0.10;;
34585;SDS011;20816;50.950;11.108;2023-08-01T08:52:07;0.40;;;0.40;;
34585;SDS011;20816;50.950;11.108;2023-08-01T08:54:35;2.35;;;0.40;;
34585;SDS011;20816;50.950;11.108;2023-08-01T08:57:05;0.47;;;0.20;;
34585;SDS011;20816;50.950;11.108;2023-08-01T08:59:33;1.05;;;0.40;;
34585;SDS011;20816;50.950;11.108;2023-08-01T09:02:00;0.77;;;0.40;;
34585;SDS011;20816;50.950;11.108;2023-08-01T09:04:30;2.30;;;1.10;;
34585;SDS011;20816;50.950;11.108;2023-08-01T09:07:07;1.80;;;1.10;;
34585;SDS011;20816;50.950;11.108;2023-08-01T09:09:37;1.95;;;1.20;;
34585;SDS011;20816;50.950;11.108;2023-08-01T09:12:04;1.55;;;1.15;;
34585;SDS011;20816;50.950;11.108;2023-08-01T09:14:32;0.90;;;0.80;;
34585;SDS011;20816;50.950;11.108;2023-08-01T09:17:05;1.33;;;1.17;;
34585;SDS011;20816;50.950;11.108;2023-08-01T09:19:35;0.82;;;0.60;;
34585;SDS011;20816;50.950;11.108;2023-08-01T09:22:09;1.08;;;0.60;;
34585;SDS011;20816;50.950;11.108;2023-08-01T09:24:37;1.10;;;0.70;;
34585;SDS011;20816;50.950;11.108;2023-08-01T09:27:04;0.93;;;0.68;;
34585;SDS011;20816;50.950;11.108;2023-08-01T09:29:31;5.05;;;1.30;;
34585;SDS011;20816;50.950;11.108;2023-08-01T09:31:59;1.42;;;0.80;;
34585;SDS011;20816;50.950;11.108;2023-08-01T09:34:26;5.30;;;1.48;;
34585;SDS011;20816;50.950;11.108;2023-08-01T09:36:57;1.35;;;0.95;;
34585;SDS011;20816;50.950;11.108;2023-08-01T09:39:25;1.48;;;0.80;;
34585;SDS011;20816;50.950;11.108;2023-08-01T09:41:56;1.38;;;1.20;;
34585;SDS011;20816;50.950;11.108;2023-08-01T09:44:27;1.60;;;1.00;;
34585;SDS011;20816;50.950;11.108;2023-08-01T09:46:55;2.38;;;1.27;;
34585;SDS011;20816;50.950;11.108;2023-08-01T09:49:22;1.90;;;1.02;;
34585;SDS011;20816;50.950;11.108;2023-08-01T09:51:49;1.73;;;1.23;;
34585;SDS011;20816;50.950;11.108;2023-08-01T09:54:17;1.45;;;1.30;;
34585;SDS011;20816;50.950;11.108;2023-08-01T09:56:44;1.48;;;1.38;;
34585;SDS011;20816;50.950;11.108;2023-08-01T09:59:13;2.70;;;1.08;;
34585;SDS011;20816;50.950;11.108;2023-08-01T10:01:43;1.73;;;1.40;;
34585;SDS011;20816;50.950;11.108;2023-08-01T10:04:11;1.83;;;1.27;;
34585;SDS011;20816;50.950;11.108;2023-08-01T10:06:41;2.67;;;1.30;;
34585;SDS011;20816;50.950;11.108;2023-08-01T10:09:10;6.35;;;1.17;;
34585;SDS011;20816;50.950;11.108;2023-08-01T10:11:38;1.95;;;1.30;;
34585;SDS011;20816;50.950;11.108;2023-08-01T10:14:06;1.90;;;1.05;;
34585;SDS011;20816;50.950;11.108;2023-08-01T10:16:33;4.60;;;1.20;;
34585;SDS011;20816;50.950;11.108;2023-08-01T10:19:02;1.67;;;1.00;;
34585;SDS011;20816;50.950;11.108;2023-08-01T10:21:32;2.90;;;0.95;;
34585;SDS011;20816;50.950;11.108;2023-08-01T10:23:59;1.55;;;1.08;;
34585;SDS011;20816;50.950;11.108;2023-08-01T10:26:27;1.60;;;1.00;;
34585;SDS011;20816;50.950;11.108;2023-08-01T10:28:54;1.20;;;0.82;;
34585;SDS011;20816;50.950;11.108;2023-08-01T10:31:21;1.30;;;0.70;;
34585;SDS011;20816;50.950;11.108;2023-08-01T10:33:49;0.90;;;0.80;;
34585;SDS011;20816;50.950;11.108;2023-08-01T10:36:20;2.47;;;0.93;;
34585;SDS011;20816;50.950;11.108;2023-08-01T10:38:52;3.15;;;1.20;;
34585;SDS011;20816;50.950;11.108;2023-08-01T10:41:24;1.20;;;0.80;;
34585;SDS011;20816;50.950;11.108;2023-08-01T10:46:54;2.95;;;1.17;;
34585;SDS011;20816;50.950;11.108;2023-08-01T10:49:39;0.77;;;0.63;;
34585;SDS011;20816;50.950;11.108;2023-08-01T10:55:00;0.98;;;0.82;;
34585;SDS011;20816;50.950;11.108;2023-08-01T10:57:29;2.20;;;1.00;;
34585;SDS011;20816;50.950;11.108;2023-08-01T10:59:58;1.88;;;1.00;;
34585;SDS011;20816;50.950;11.108;2023-08-01T11:02:28;0.77;;;0.70;;
34585;SDS011;20816;50.950;11.108;2023-08-01T11:05:00;1.48;;;0.85;;
34585;SDS011;20816;50.950;11.108;2023-08-01T11:07:28;1.25;;;0.82;;
34585;SDS011;20816;50.950;11.108;2023-08-01T11:10:04;2.58;;;1.00;;
34585;SDS011;20816;50.950;11.108;2023-08-01T11:12:36;0.85;;;0.70;;
34585;SDS011;20816;50.950;11.108;2023-08-01T11:15:05;1.50;;;0.98;;
34585;SDS011;20816;50.950;11.108;2023-08-01T11:17:35;0.88;;;0.82;;
34585;SDS011;20816;50.950;11.108;2023-08-01T11:20:10;0.93;;;0.70;;
34585;SDS011;20816;50.950;11.108;2023-08-01T11:22:38;1.17;;;0.93;;
34585;SDS011;20816;50.950;11.108;2023-08-01T11:25:19;2.55;;;0.75;;
34585;SDS011;20816;50.950;11.108;2023-08-01T11:28:01;1.90;;;0.80;;
34585;SDS011;20816;50.950;11.108;2023-08-01T11:30:35;2.03;;;0.80;;
34585;SDS011;20816;50.950;11.108;2023-08-01T11:33:02;1.00;;;0.70;;
34585;SDS011;20816;50.950;11.108;2023-08-01T11:35:40;1.00;;;0.90;;
34585;SDS011;20816;50.950;11.108;2023-08-01T11:38:07;1.63;;;1.00;;
34585;SDS011;20816;50.950;11.108;2023-08-01T11:40:34;1.33;;;1.10;;
34585;SDS011;20816;50.950;11.108;2023-08-01T11:43:01;2.22;;;0.98;;
34585;SDS011;20816;50.950;11.108;2023-08-01T11:45:28;0.85;;;0.63;;
34585;SDS011;20816;50.950;11.108;2023-08-01T11:47:55;1.25;;;0.50;;
34585;SDS011;20816;50.950;11.108;2023-08-01T11:50:22;1.63;;;0.95;;
34585;SDS011;20816;50.950;11.108;2023-08-01T11:52:51;1.13;;;0.85;;
34585;SDS011;20816;50.950;11.108;2023-08-01T11:55:18;0.88;;;0.70;;
34585;SDS011;20816;50.950;11.108;2023-08-01T11:57:58;1.98;;;1.10;;
34585;SDS011;20816;50.950;11.108;2023-08-01T12:00:26;0.98;;;0.70;;
34585;SDS011;20816;50.950;11.108;2023-08-01T12:03:03;0.57;;;0.52;;
34585;SDS011;20816;50.950;11.108;2023-08-01T12:05:40;1.10;;;0.73;;
34585;SDS011;20816;50.950;11.108;2023-08-01T12:08:14;0.73;;;0.73;;
34585;SDS011;20816;50.950;11.108;2023-08-01T12:10:43;3.28;;;1.00;;
34585;SDS011;20816;50.950;11.108;2023-08-01T12:13:20;0.60;;;0.45;;
34585;SDS011;20816;50.950;11.108;2023-08-01T12:15:51;2.88;;;0.70;;
34585;SDS011;20816;50.950;11.108;2023-08-01T12:18:21;3.47;;;0.90;;
34585;SDS011;20816;50.950;11.108;2023-08-01T12:21:08;4.72;;;1.85;;
34585;SDS011;20816;50.950;11.108;2023-08-01T12:23:35;0.80;;;0.70;;
34585;SDS011;20816;50.950;11.108;2023-08-01T12:26:02;1.05;;;0.80;;
34585;SDS011;20816;50.950;11.108;2023-08-01T12:28:29;1.52;;;0.88;;
34585;SDS011;20816;50.950;11.108;2023-08-01T12:30:55;0.98;;;0.82;;
34585;SDS011;20816;50.950;11.108;2023-08-01T12:33:25;1.70;;;1.10;;
34585;SDS011;20816;50.950;11.108;2023-08-01T12:35:53;2.50;;;1.30;;
34585;SDS011;20816;50.950;11.108;2023-08-01T12:38:20;1.25;;;0.85;;
34585;SDS011;20816;50.950;11.108;2023-08-01T12:40:47;1.40;;;0.90;;
34585;SDS011;20816;50.950;11.108;2023-08-01T12:43:14;2.10;;;0.70;;
34585;SDS011;20816;50.950;11.108;2023-08-01T12:45:43;3.75;;;1.40;;
34585;SDS011;20816;50.950;11.108;2023-08-01T12:48:10;2.42;;;1.20;;
34585;SDS011;20816;50.950;11.108;2023-08-01T12:50:36;1.70;;;1.00;;
34585;SDS011;20816;50.950;11.108;2023-08-01T12:53:03;1.77;;;1.08;;
34585;SDS011;20816;50.950;11.108;2023-08-01T12:55:30;1.38;;;0.98;;
34585;SDS011;20816;50.950;11.108;2023-08-01T12:57:57;1.30;;;0.90;;
34585;SDS011;20816;50.950;11.108;2023-08-01T13:00:23;0.77;;;0.65;;
34585;SDS011;20816;50.950;11.108;2023-08-01T13:02:50;0.93;;;0.70;;
34585;SDS011;20816;50.950;11.108;2023-08-01T13:05:17;0.93;;;0.77;;
34585;SDS011;20816;50.950;11.108;2023-08-01T13:07:44;2.25;;;1.20;;
34585;SDS011;20816;50.950;11.108;2023-08-01T13:10:10;1.80;;;1.40;;
34585;SDS011;20816;50.950;11.108;2023-08-01T13:12:37;0.88;;;0.68;;
34585;SDS011;20816;50.950;11.108;2023-08-01T13:15:04;2.10;;;1.25;;
34585;SDS011;20816;50.950;11.108;2023-08-01T13:17:42;1.88;;;0.80;;
34585;SDS011;20816;50.950;11.108;2023-08-01T13:20:09;1.20;;;0.85;;
34585;SDS011;20816;50.950;11.108;2023-08-01T13:22:37;1.75;;;1.00;;
34585;SDS011;20816;50.950;11.108;2023-08-01T13:25:03;1.48;;;0.88;;
34585;SDS011;20816;50.950;11.108;2023-08-01T13:27:34;1.98;;;1.75;;
34585;SDS011;20816;50.950;11.108;2023-08-01T13:30:01;1.20;;;0.93;;
34585;SDS011;20816;50.950;11.108;2023-08-01T13:32:29;1.73;;;1.08;;
34585;SDS011;20816;50.950;11.108;2023-08-01T13:34:55;1.10;;;0.85;;
34585;SDS011;20816;50.950;11.108;2023-08-01T13:37:22;1.95;;;1.15;;
34585;SDS011;20816;50.950;11.108;2023-08-01T13:39:49;2.15;;;1.00;;
34585;SDS011;20816;50.950;11.108;2023-08-01T13:42:16;1.48;;;1.20;;
34585;SDS011;20816;50.950;11.108;2023-08-01T13:44:43;1.13;;;0.90;;
34585;SDS011;20816;50.950;11.108;2023-08-01T13:47:10;2.97;;;1.60;;
34585;SDS011;20816;50.950;11.108;2023-08-01T13:49:37;1.67;;;1.17;;
34585;SDS011;20816;50.950;11.108;2023-08-01T13:52:03;1.60;;;1.50;;
34585;SDS011;20816;50.950;11.108;2023-08-01T13:54:31;2.50;;;1.27;;
34585;SDS011;20816;50.950;11.108;2023-08-01T13:56:57;3.45;;;1.40;;
34585;SDS011;20816;50.950;11.108;2023-08-01T13:59:24;5.53;;;1.60;;
34585;SDS011;20816;50.950;11.108;2023-08-01T14:01:52;3.55;;;1.75;;
34585;SDS011;20816;50.950;11.108;2023-08-01T14:04:20;2.38;;;1.10;;
34585;SDS011;20816;50.950;11.108;2023-08-01T14:06:47;1.20;;;1.00;;
34585;SDS011;20816;50.950;11.108;2023-08-01T14:09:14;1.35;;;1.00;;
34585;SDS011;20816;50.950;11.108;2023-08-01T14:11:40;0.95;;;0.65;;
34585;SDS011;20816;50.950;11.108;2023-08-01T14:14:07;1.25;;;0.90;;
34585;SDS011;20816;50.950;11.108;2023-08-01T14:16:34;1.05;;;0.68;;
34585;SDS011;20816;50.950;11.108;2023-08-01T14:19:01;1.90;;;0.80;;
34585;SDS011;20816;50.950;11.108;2023-08-01T14:21:27;1.25;;;0.88;;
34585;SDS011;20816;50.950;11.108;2023-08-01T14:23:55;0.82;;;0.73;;
34585;SDS011;20816;50.950;11.108;2023-08-01T14:26:21;2.30;;;0.70;;
34585;SDS011;20816;50.950;11.108;2023-08-01T14:28:48;1.17;;;1.00;;
34585;SDS011;20816;50.950;11.108;2023-08-01T14:31:16;2.50;;;0.80;;
34585;SDS011;20816;50.950;11.108;2023-08-01T14:33:43;0.90;;;0.75;;
34585;SDS011;20816;50.950;11.108;2023-08-01T14:36:10;1.45;;;0.70;;
34585;SDS011;20816;50.950;11.108;2023-08-01T14:38:39;3.95;;;0.70;;
34585;SDS011;20816;50.950;11.108;2023-08-01T14:41:06;2.80;;;0.60;;
34585;SDS011;20816;50.950;11.108;2023-08-01T14:43:53;0.95;;;0.60;;